ZKEYC NZCH-NZCH
Flight info
| Callsign | ZKEYC |
|---|---|
| Flight time | 0h 5m |
| Altitude | 1500 |
| Route | CH CH |
| Aircraft | PA38/L-V/N |
Departure
| Time | 2026-05-08 06:51 |
|---|---|
| Airport | Christchurch International Airport (NZCH) |
Arrival
| Time | 2026-05-08 06:57 |
|---|---|
| Airport | Christchurch International Airport (NZCH) |
| Time | Latitude | Longitude | Altitude | Speed | Heading |
|---|---|---|---|---|---|
| 2026-05-08 06:31 | -43.48476 | 172.53000 | 111 ft | 0 kts | 219° |
| 2026-05-08 06:32 | -43.48479 | 172.52998 | 111 ft | 0 kts | 217° |
| 2026-05-08 06:32 | -43.48488 | 172.52987 | 111 ft | 0 kts | 220° |
| 2026-05-08 06:35 | -43.48494 | 172.52983 | 111 ft | 0 kts | 210° |
| 2026-05-08 06:35 | -43.48490 | 172.52982 | 111 ft | 3 kts | 58° |
| 2026-05-08 06:36 | -43.48461 | 172.53002 | 111 ft | 5 kts | 309° |
| 2026-05-08 06:36 | -43.48456 | 172.52966 | 112 ft | 4 kts | 218° |
| 2026-05-08 06:36 | -43.48488 | 172.52927 | 113 ft | 0 kts | 221° |
| 2026-05-08 06:47 | -43.48489 | 172.52927 | 113 ft | 1 kts | 217° |
| 2026-05-08 06:47 | -43.48515 | 172.52908 | 114 ft | 5 kts | 146° |
| 2026-05-08 06:47 | -43.48564 | 172.52985 | 109 ft | 20 kts | 130° |
| 2026-05-08 06:47 | -43.48674 | 172.53166 | 109 ft | 24 kts | 128° |
| 2026-05-08 06:48 | -43.48720 | 172.53239 | 109 ft | 0 kts | 130° |
| 2026-05-08 06:49 | -43.48753 | 172.53293 | 109 ft | 15 kts | 129° |
| 2026-05-08 06:50 | -43.48712 | 172.53418 | 108 ft | 29 kts | 40° |
| 2026-05-08 06:50 | -43.48450 | 172.53715 | 141 ft | 62 kts | 40° |
| 2026-05-08 06:50 | -43.48114 | 172.54096 | 311 ft | 63 kts | 39° |
| 2026-05-08 06:50 | -43.47750 | 172.54481 | 469 ft | 68 kts | 41° |
| 2026-05-08 06:51 | -43.47430 | 172.54947 | 720 ft | 65 kts | 49° |
| 2026-05-08 06:51 | -43.46960 | 172.54992 | 921 ft | 78 kts | 332° |
| 2026-05-08 06:51 | -43.46719 | 172.54319 | 1248 ft | 68 kts | 316° |
| 2026-05-08 06:51 | -43.46643 | 172.53621 | 1331 ft | 106 kts | 246° |
| 2026-05-08 06:52 | -43.47198 | 172.52909 | 1393 ft | 114 kts | 223° |
| 2026-05-08 06:52 | -43.47842 | 172.52187 | 1393 ft | 118 kts | 222° |
| 2026-05-08 06:52 | -43.48394 | 172.51445 | 1519 ft | 108 kts | 234° |
| 2026-05-08 06:52 | -43.48971 | 172.50663 | 1435 ft | 124 kts | 230° |
| 2026-05-08 06:53 | -43.49635 | 172.49878 | 1394 ft | 124 kts | 221° |
| 2026-05-08 06:53 | -43.50286 | 172.49119 | 1404 ft | 126 kts | 222° |
| 2026-05-08 06:53 | -43.50930 | 172.48298 | 1360 ft | 123 kts | 225° |
| 2026-05-08 06:53 | -43.51605 | 172.47641 | 1358 ft | 119 kts | 196° |
| 2026-05-08 06:54 | -43.52315 | 172.47805 | 1331 ft | 97 kts | 126° |
| 2026-05-08 06:54 | -43.52721 | 172.48424 | 1355 ft | 80 kts | 105° |
| 2026-05-08 06:54 | -43.52739 | 172.49051 | 1182 ft | 66 kts | 32° |
| 2026-05-08 06:54 | -43.52324 | 172.49386 | 1003 ft | 70 kts | 30° |
| 2026-05-08 06:55 | -43.51905 | 172.49778 | 828 ft | 69 kts | 38° |
| 2026-05-08 06:55 | -43.51567 | 172.50093 | 589 ft | 57 kts | 39° |
| 2026-05-08 06:55 | -43.51292 | 172.50454 | 498 ft | 51 kts | 43° |
| 2026-05-08 06:55 | -43.51009 | 172.50780 | 422 ft | 57 kts | 36° |
| 2026-05-08 06:56 | -43.50713 | 172.51121 | 379 ft | 56 kts | 38° |
| 2026-05-08 06:56 | -43.50436 | 172.51459 | 346 ft | 51 kts | 39° |
| 2026-05-08 06:56 | -43.50141 | 172.51768 | 281 ft | 54 kts | 39° |
| 2026-05-08 06:56 | -43.49838 | 172.52111 | 198 ft | 58 kts | 40° |
| 2026-05-08 06:57 | -43.49553 | 172.52445 | 117 ft | 44 kts | 41° |
| 2026-05-08 06:57 | -43.49347 | 172.52686 | 118 ft | 48 kts | 40° |
| 2026-05-08 06:57 | -43.49068 | 172.53011 | 228 ft | 53 kts | 39° |
| 2026-05-08 06:57 | -43.48771 | 172.53333 | 351 ft | 55 kts | 39° |
| 2026-05-08 06:58 | -43.48470 | 172.53673 | 451 ft | 58 kts | 38° |
| 2026-05-08 06:58 | -43.48155 | 172.53994 | 592 ft | 48 kts | 41° |
| 2026-05-08 06:58 | -43.47924 | 172.54322 | 777 ft | 42 kts | 43° |
| 2026-05-08 06:58 | -43.47690 | 172.54561 | 973 ft | 40 kts | 19° |
| 2026-05-08 06:59 | -43.47439 | 172.54243 | 1181 ft | 61 kts | 322° |
| 2026-05-08 06:59 | -43.47255 | 172.53948 | 1293 ft | 61 kts | 328° |
| 2026-05-08 06:59 | -43.47013 | 172.53518 | 1433 ft | 66 kts | 330° |
| 2026-05-08 06:59 | -43.46982 | 172.52688 | 1352 ft | 121 kts | 249° |
| 2026-05-08 07:00 | -43.47610 | 172.51880 | 1398 ft | 122 kts | 225° |
| 2026-05-08 07:00 | -43.48254 | 172.51167 | 1467 ft | 117 kts | 221° |
| 2026-05-08 07:00 | -43.48906 | 172.50531 | 1532 ft | 114 kts | 215° |
| 2026-05-08 07:00 | -43.49529 | 172.49995 | 1618 ft | 99 kts | 218° |
| 2026-05-08 07:01 | -43.50087 | 172.49416 | 1610 ft | 103 kts | 213° |
| 2026-05-08 07:01 | -43.50751 | 172.49343 | 1548 ft | 89 kts | 140° |
| 2026-05-08 07:01 | -43.51270 | 172.49844 | 1405 ft | 91 kts | 118° |
| 2026-05-08 07:01 | -43.51302 | 172.50531 | 1187 ft | 59 kts | 37° |
| 2026-05-08 07:02 | -43.50928 | 172.50893 | 664 ft | 72 kts | 38° |
| 2026-05-08 07:02 | -43.50560 | 172.51304 | 426 ft | 62 kts | 38° |
| 2026-05-08 07:02 | -43.50443 | 172.51421 | 372 ft | 58 kts | 35° |
| 2026-05-08 07:03 | -43.49906 | 172.52042 | 196 ft | 48 kts | 40° |
| 2026-05-08 07:03 | -43.49659 | 172.52325 | 135 ft | 46 kts | 39° |
| 2026-05-08 07:03 | -43.49447 | 172.52573 | 112 ft | 30 kts | 40° |
| 2026-05-08 07:04 | -43.49364 | 172.52664 | 112 ft | 8 kts | 49° |
| 2026-05-08 07:04 | -43.49212 | 172.52844 | 109 ft | 51 kts | 40° |
| 2026-05-08 07:04 | -43.48954 | 172.53135 | 104 ft | 40 kts | 36° |
| 2026-05-08 07:04 | -43.48831 | 172.53139 | 106 ft | 11 kts | 35° |
| 2026-05-08 07:05 | -43.48721 | 172.53237 | 109 ft | 13 kts | 336° |
| 2026-05-08 07:05 | -43.48648 | 172.53124 | 107 ft | 23 kts | 307° |
| 2026-05-08 07:05 | -43.48537 | 172.52939 | 113 ft | 4 kts | 335° |
| 2026-05-08 07:05 | -43.48490 | 172.52982 | 111 ft | 19 kts | 34° |
| 2026-05-08 07:06 | -43.48416 | 172.53005 | 111 ft | 6 kts | 303° |
| 2026-05-08 07:06 | -43.48387 | 172.52996 | 111 ft | 4 kts | 101° |
| 2026-05-08 07:06 | -43.48382 | 172.52979 | 111 ft | 6 kts | 320° |
| 2026-05-08 07:06 | -43.48363 | 172.52939 | 112 ft | 0 kts | 302° |